createdAt,value
2023-12-14T00:01:11.761Z,91.80
2023-12-14T00:04:19.504Z,91.60
2023-12-14T00:07:27.571Z,91.80
2023-12-14T00:10:35.438Z,91.80
2023-12-14T00:13:41.628Z,92.10
2023-12-14T00:16:50.559Z,92.00
2023-12-14T00:19:56.064Z,92.30
2023-12-14T00:23:06.266Z,93.00
2023-12-14T00:26:11.847Z,91.40
2023-12-14T00:29:19.497Z,91.10
2023-12-14T00:32:24.943Z,91.20
2023-12-14T00:35:32.435Z,91.30
2023-12-14T00:38:41.105Z,92.80
2023-12-14T00:41:48.642Z,92.50
2023-12-14T00:44:54.319Z,92.90
2023-12-14T00:48:01.942Z,92.10
2023-12-14T00:51:08.061Z,91.60
2023-12-14T00:54:18.285Z,91.10
2023-12-14T00:57:24.417Z,91.10
2023-12-14T01:00:32.536Z,91.10
2023-12-14T01:03:38.133Z,91.00
2023-12-14T01:06:46.001Z,91.00
2023-12-14T01:09:54.190Z,91.00
2023-12-14T01:13:01.668Z,91.70
2023-12-14T01:16:07.957Z,91.10
2023-12-14T01:19:15.488Z,91.00
2023-12-14T01:22:21.016Z,91.00
2023-12-14T01:25:31.501Z,91.00
2023-12-14T01:28:37.170Z,93.60
2023-12-14T01:31:44.870Z,92.10
2023-12-14T01:34:50.325Z,91.00
2023-12-14T01:37:58.293Z,91.00
2023-12-14T01:41:06.762Z,90.90
2023-12-14T01:44:14.537Z,91.00
2023-12-14T01:47:22.109Z,90.90
2023-12-14T01:50:29.568Z,90.90
2023-12-14T01:53:35.139Z,90.90
2023-12-14T01:56:45.266Z,90.90
2023-12-14T01:59:50.791Z,90.90
2023-12-14T02:02:58.576Z,90.90
2023-12-14T02:06:04.232Z,90.90
2023-12-14T02:09:11.745Z,91.00
2023-12-14T02:12:19.912Z,90.90
2023-12-14T02:15:27.487Z,90.90
2023-12-14T02:18:33.145Z,90.90
2023-12-14T02:21:40.599Z,90.90
2023-12-14T02:24:49.007Z,90.90
2023-12-14T02:27:56.561Z,90.90
2023-12-14T02:31:02.054Z,90.90
2023-12-14T02:34:09.880Z,91.00
2023-12-14T02:37:15.441Z,90.90
2023-12-14T02:40:25.471Z,90.90
2023-12-14T02:43:30.971Z,90.90
2023-12-14T02:46:38.550Z,91.00
2023-12-14T02:49:44.240Z,91.00
2023-12-14T02:52:52.011Z,91.10
2023-12-14T02:56:00.278Z,91.60
2023-12-14T02:59:07.889Z,92.70
2023-12-14T03:02:13.583Z,91.70
2023-12-14T03:05:21.208Z,90.90
2023-12-14T03:08:26.785Z,90.80
2023-12-14T03:11:37.304Z,90.80
2023-12-14T03:14:42.777Z,90.80
2023-12-14T03:17:50.299Z,90.80
2023-12-14T03:20:57.104Z,90.80
2023-12-14T03:24:04.944Z,90.80
2023-12-14T03:27:13.204Z,90.90
2023-12-14T03:30:20.713Z,90.80
2023-12-14T03:33:26.339Z,91.60
2023-12-14T03:36:34.378Z,90.80
2023-12-14T03:39:39.970Z,91.10
2023-12-14T03:42:50.223Z,91.30
2023-12-14T03:45:55.737Z,91.00
2023-12-14T03:49:03.295Z,90.80
2023-12-14T03:52:09.806Z,91.00
2023-12-14T03:55:18.710Z,90.90
2023-12-14T03:58:26.864Z,91.10
2023-12-14T04:01:34.899Z,91.40
2023-12-14T04:04:40.395Z,90.70
2023-12-14T04:07:48.312Z,90.80
2023-12-14T04:10:53.822Z,90.70
2023-12-14T04:14:03.963Z,90.70
2023-12-14T04:17:09.559Z,90.70
2023-12-14T04:20:17.983Z,90.70
2023-12-14T04:23:23.609Z,90.70
2023-12-14T04:26:31.263Z,90.70
2023-12-14T04:29:39.464Z,90.70
2023-12-14T04:32:48.936Z,90.70
2023-12-14T04:35:54.533Z,90.70
2023-12-14T04:39:02.067Z,90.70
2023-12-14T04:42:08.025Z,90.70
2023-12-14T04:45:18.207Z,90.70
2023-12-14T04:48:23.821Z,90.70
2023-12-14T04:51:31.328Z,90.70
2023-12-14T04:54:39.314Z,90.70
2023-12-14T04:57:50.102Z,90.70
2023-12-14T05:00:58.210Z,90.70
2023-12-14T05:04:05.961Z,90.70
2023-12-14T05:07:11.593Z,90.70
2023-12-14T05:10:19.562Z,90.70
2023-12-14T05:13:25.078Z,90.70
2023-12-14T05:16:35.284Z,90.70
2023-12-14T05:19:40.901Z,90.70
2023-12-14T05:22:48.364Z,90.70
2023-12-14T05:25:53.938Z,90.70
2023-12-14T05:29:01.454Z,90.70
2023-12-14T05:32:10.244Z,90.70
2023-12-14T05:35:17.888Z,90.70
2023-12-14T05:38:27.593Z,90.70
2023-12-14T05:41:35.084Z,90.70
2023-12-14T05:44:40.991Z,90.70
2023-12-14T05:47:52.565Z,90.70
2023-12-14T05:50:58.164Z,90.60
2023-12-14T05:54:05.967Z,90.70
2023-12-14T05:57:14.462Z,90.70
2023-12-14T06:00:24.333Z,90.70
2023-12-14T06:03:33.052Z,90.70
2023-12-14T06:06:42.423Z,90.70
2023-12-14T06:09:48.708Z,90.70
2023-12-14T06:12:56.320Z,90.70
2023-12-14T06:16:02.004Z,90.70
2023-12-14T06:19:12.341Z,90.70
2023-12-14T06:22:18.049Z,90.70
2023-12-14T06:25:25.513Z,91.00
2023-12-14T06:28:31.565Z,92.30
2023-12-14T06:31:39.441Z,93.80
2023-12-14T06:34:47.626Z,95.20
2023-12-14T06:37:55.270Z,92.90
2023-12-14T06:41:00.865Z,93.80
2023-12-14T06:44:10.495Z,95.80
2023-12-14T06:47:16.807Z,94.00
2023-12-14T06:50:26.976Z,94.00
2023-12-14T06:53:32.366Z,95.60
2023-12-14T06:56:41.034Z,92.70
2023-12-14T06:59:46.447Z,92.40
2023-12-14T07:02:54.371Z,92.50
2023-12-14T07:06:02.942Z,93.00
2023-12-14T07:09:10.995Z,93.30
2023-12-14T07:12:16.479Z,94.30
2023-12-14T07:15:24.153Z,95.00
2023-12-14T07:18:29.847Z,95.40
2023-12-14T07:21:40.094Z,91.80
2023-12-14T07:24:52.720Z,92.90
2023-12-14T07:28:04.327Z,92.80
2023-12-14T07:31:10.028Z,93.10
2023-12-14T07:34:17.601Z,93.80
2023-12-14T07:37:26.130Z,93.60
2023-12-14T07:40:33.755Z,94.00
2023-12-14T07:43:39.585Z,91.70
2023-12-14T07:46:47.691Z,91.80
2023-12-14T07:49:53.320Z,91.90
2023-12-14T07:53:04.126Z,93.00
2023-12-14T07:56:11.179Z,91.80
2023-12-14T07:59:19.400Z,92.10
2023-12-14T08:02:25.038Z,91.00
2023-12-14T08:05:32.647Z,93.00
2023-12-14T08:08:40.830Z,90.90
2023-12-14T08:11:48.502Z,91.90
2023-12-14T08:14:54.157Z,92.20
2023-12-14T08:18:01.861Z,90.60
2023-12-14T08:21:09.567Z,90.50
2023-12-14T08:24:21.649Z,90.50
2023-12-14T08:27:27.222Z,90.50
2023-12-14T08:30:34.846Z,90.80
2023-12-14T08:33:40.485Z,91.00
2023-12-14T08:36:48.030Z,91.70
2023-12-14T08:39:56.832Z,92.10
2023-12-14T08:43:04.561Z,93.60
2023-12-14T08:46:11.347Z,91.90
2023-12-14T08:49:18.901Z,93.10
2023-12-14T08:52:24.315Z,92.40
2023-12-14T08:55:34.463Z,92.50
2023-12-14T08:58:39.953Z,92.30
2023-12-14T09:01:47.529Z,93.00
2023-12-14T09:04:53.201Z,90.50
2023-12-14T09:08:00.896Z,90.50
2023-12-14T09:11:09.987Z,90.80
2023-12-14T09:14:17.842Z,93.50
2023-12-14T09:17:24.117Z,95.30
2023-12-14T09:20:32.543Z,91.70
2023-12-14T09:23:38.030Z,94.00
2023-12-14T09:26:48.055Z,91.40
2023-12-14T09:29:53.635Z,90.80
2023-12-14T09:33:01.158Z,92.40
2023-12-14T09:36:07.774Z,96.60
2023-12-14T09:39:16.722Z,91.90
2023-12-14T09:42:25.418Z,92.20
2023-12-14T09:45:34.877Z,91.00
2023-12-14T09:48:40.663Z,90.30
2023-12-14T09:51:48.264Z,90.30
2023-12-14T09:54:55.962Z,90.30
2023-12-14T09:58:07.672Z,90.30
2023-12-14T10:01:26.787Z,90.20
2023-12-14T10:04:37.207Z,90.20
2023-12-14T10:07:47.119Z,90.30
2023-12-14T10:10:56.947Z,90.30
2023-12-14T10:14:05.508Z,90.40
2023-12-14T10:17:25.879Z,90.80
2023-12-14T10:20:32.127Z,91.90
2023-12-14T10:23:40.111Z,91.50
2023-12-14T10:26:49.868Z,92.40
2023-12-14T10:30:00.355Z,93.50
2023-12-14T10:33:06.093Z,92.80
2023-12-14T10:36:14.359Z,93.20
2023-12-14T10:39:20.884Z,95.30
2023-12-14T10:42:31.608Z,93.80
2023-12-14T10:45:40.891Z,93.90
2023-12-14T10:48:51.113Z,94.20
2023-12-14T10:51:58.988Z,94.60
2023-12-14T10:55:11.751Z,94.00
2023-12-14T10:58:17.413Z,93.70
2023-12-14T11:01:28.822Z,94.00
2023-12-14T11:04:34.301Z,94.30
2023-12-14T11:07:49.245Z,92.50
2023-12-14T11:10:59.250Z,90.60
2023-12-14T11:14:06.777Z,92.20
2023-12-14T11:17:14.937Z,90.80
2023-12-14T11:20:29.261Z,90.70
2023-12-14T11:23:37.538Z,90.80
2023-12-14T11:26:45.073Z,91.00
2023-12-14T11:29:52.641Z,91.30
2023-12-14T11:33:02.882Z,91.80
2023-12-14T11:36:10.182Z,92.10
2023-12-14T11:39:17.686Z,91.70
2023-12-14T11:42:23.160Z,91.00
2023-12-14T11:45:31.163Z,91.40
2023-12-14T11:48:39.335Z,91.90
2023-12-14T11:51:50.150Z,92.10
2023-12-14T11:54:57.603Z,90.30
2023-12-14T11:58:05.245Z,89.90
2023-12-14T12:01:18.772Z,89.90
2023-12-14T12:04:29.619Z,90.00
2023-12-14T12:07:35.299Z,90.90
2023-12-14T12:10:46.022Z,90.30
2023-12-14T12:13:55.818Z,90.50
2023-12-14T12:17:03.321Z,90.30
2023-12-14T12:20:13.504Z,90.90
2023-12-14T12:23:21.051Z,90.50
2023-12-14T12:26:26.728Z,92.20
2023-12-14T12:29:34.404Z,92.40
2023-12-14T12:32:40.453Z,91.40
2023-12-14T12:35:50.877Z,89.80
2023-12-14T12:38:56.333Z,89.90
2023-12-14T12:42:03.939Z,92.20
2023-12-14T12:45:12.036Z,92.10
2023-12-14T12:48:19.831Z,91.50
2023-12-14T12:51:28.245Z,91.60
2023-12-14T12:54:36.310Z,91.70
2023-12-14T12:57:42.876Z,91.30
2023-12-14T13:00:50.585Z,90.70
2023-12-14T13:04:00.594Z,90.80
2023-12-14T13:07:10.627Z,90.90
2023-12-14T13:10:25.631Z,91.00
2023-12-14T13:13:38.623Z,91.20
2023-12-14T13:16:45.319Z,90.30
2023-12-14T13:19:52.851Z,90.80
2023-12-14T13:23:01.295Z,91.60
2023-12-14T13:26:09.596Z,90.20
2023-12-14T13:29:15.262Z,90.60
2023-12-14T13:32:22.758Z,90.50
2023-12-14T13:35:29.271Z,91.40
2023-12-14T13:38:40.007Z,90.40
2023-12-14T13:41:50.463Z,90.20
2023-12-14T13:44:58.606Z,90.40
2023-12-14T13:48:04.114Z,90.70
2023-12-14T13:51:11.565Z,91.40
2023-12-14T13:54:19.738Z,90.10
2023-12-14T13:57:28.730Z,90.20
2023-12-14T14:00:35.892Z,90.00
2023-12-14T14:03:48.164Z,90.10
2023-12-14T14:06:53.933Z,90.20
2023-12-14T14:10:04.574Z,90.20
2023-12-14T14:13:10.199Z,90.20
2023-12-14T14:16:17.936Z,90.30
2023-12-14T14:19:23.513Z,90.50
2023-12-14T14:22:31.575Z,90.50
2023-12-14T14:25:39.777Z,90.60
2023-12-14T14:28:47.915Z,90.90
2023-12-14T14:31:53.385Z,90.80
2023-12-14T14:35:02.363Z,91.00
2023-12-14T14:38:07.961Z,91.40
2023-12-14T14:41:18.455Z,90.70
2023-12-14T14:44:25.044Z,90.70
2023-12-14T14:47:32.601Z,90.50
2023-12-14T14:50:38.602Z,91.00
2023-12-14T14:53:46.278Z,90.70
2023-12-14T14:56:54.284Z,90.40
2023-12-14T15:00:01.949Z,90.40
2023-12-14T15:03:10.845Z,90.90
2023-12-14T15:06:18.460Z,91.80
2023-12-14T15:09:23.944Z,91.00
2023-12-14T15:12:34.327Z,92.30
2023-12-14T15:15:40.520Z,92.50
2023-12-14T15:18:48.804Z,91.70
2023-12-14T15:21:54.561Z,90.10
2023-12-14T15:25:02.098Z,90.10
2023-12-14T15:28:10.566Z,90.10
2023-12-14T15:31:18.154Z,90.30
2023-12-14T15:34:23.675Z,90.50
2023-12-14T15:37:31.196Z,90.40
2023-12-14T15:40:37.061Z,90.70
2023-12-14T15:43:47.613Z,90.70
2023-12-14T15:46:53.353Z,91.10
2023-12-14T15:50:00.899Z,91.60
2023-12-14T15:53:06.497Z,92.30
2023-12-14T15:56:14.214Z,90.90
2023-12-14T15:59:22.377Z,90.90
2023-12-14T16:02:30.063Z,91.00
2023-12-14T16:05:35.789Z,91.30
2023-12-14T16:08:43.455Z,91.10
2023-12-14T16:11:48.945Z,91.30
2023-12-14T16:14:59.536Z,91.40
2023-12-14T16:18:06.498Z,91.30
2023-12-14T16:21:14.907Z,91.50
2023-12-14T16:24:21.067Z,91.70
2023-12-14T16:27:28.552Z,91.80
2023-12-14T16:30:37.001Z,92.10
2023-12-14T16:33:45.092Z,91.90
2023-12-14T16:36:51.656Z,92.50
2023-12-14T16:39:59.459Z,90.10
2023-12-14T16:43:04.918Z,90.30
2023-12-14T16:46:19.829Z,90.80
2023-12-14T16:49:25.428Z,91.30
2023-12-14T16:52:33.326Z,90.20
2023-12-14T16:55:38.921Z,92.50
2023-12-14T16:58:46.461Z,92.60
2023-12-14T17:01:54.635Z,92.20
2023-12-14T17:05:04.320Z,92.00
2023-12-14T17:08:10.368Z,91.30
2023-12-14T17:11:18.311Z,91.00
2023-12-14T17:14:24.570Z,91.30
2023-12-14T17:17:36.919Z,91.10
2023-12-14T17:20:42.407Z,91.30
2023-12-14T17:23:50.312Z,92.00
2023-12-14T17:26:56.763Z,92.00
2023-12-14T17:30:04.483Z,91.90
2023-12-14T17:33:13.758Z,92.50
2023-12-14T17:36:21.513Z,92.70
2023-12-14T17:39:27.103Z,94.90
2023-12-14T17:42:36.847Z,94.90
2023-12-14T17:45:42.683Z,94.50
2023-12-14T17:48:53.168Z,94.60
2023-12-14T17:51:58.617Z,94.10
2023-12-14T17:55:06.219Z,94.20
2023-12-14T17:58:12.095Z,95.10
2023-12-14T18:01:19.707Z,89.30
2023-12-14T18:04:28.162Z,90.00
2023-12-14T18:07:35.829Z,89.90
2023-12-14T18:10:41.984Z,89.90
2023-12-14T18:13:49.495Z,90.00
2023-12-14T18:16:55.022Z,90.00
2023-12-14T18:20:05.695Z,90.00
2023-12-14T18:23:11.285Z,90.00
2023-12-14T18:26:19.077Z,90.00
2023-12-14T18:29:24.726Z,90.00
2023-12-14T18:32:32.743Z,90.00
2023-12-14T18:35:40.960Z,90.00
2023-12-14T18:38:48.369Z,90.00
2023-12-14T18:41:54.500Z,90.00
2023-12-14T18:45:02.008Z,90.00
2023-12-14T18:48:07.893Z,90.00
2023-12-14T18:51:18.067Z,90.00
2023-12-14T18:54:24.879Z,90.00
2023-12-14T18:57:32.548Z,90.00
2023-12-14T19:00:38.327Z,90.00
2023-12-14T19:03:45.846Z,90.10
2023-12-14T19:06:53.953Z,90.10
2023-12-14T19:10:03.788Z,90.10
2023-12-14T19:13:10.982Z,90.10
2023-12-14T19:16:26.671Z,90.10
2023-12-14T19:19:32.273Z,90.10
2023-12-14T19:22:42.550Z,90.10
2023-12-14T19:25:48.979Z,90.10
2023-12-14T19:28:57.667Z,90.00
2023-12-14T19:32:03.265Z,90.10
2023-12-14T19:35:11.473Z,90.10
2023-12-14T19:38:19.812Z,90.10
2023-12-14T19:41:27.699Z,90.10
2023-12-14T19:44:33.604Z,90.10
2023-12-14T19:47:42.670Z,90.10
2023-12-14T19:50:48.641Z,90.10
2023-12-14T19:53:58.958Z,90.10
2023-12-14T19:57:04.609Z,90.10
2023-12-14T20:00:13.500Z,90.10
2023-12-14T20:03:19.129Z,90.10
2023-12-14T20:06:26.965Z,90.10
2023-12-14T20:09:36.305Z,90.10
2023-12-14T20:12:45.122Z,90.10
2023-12-14T20:15:50.610Z,90.10
2023-12-14T20:18:58.125Z,90.10
2023-12-14T20:22:03.702Z,90.10
2023-12-14T20:25:14.226Z,90.10
2023-12-14T20:28:19.654Z,90.10
2023-12-14T20:31:27.670Z,90.10
2023-12-14T20:34:33.211Z,90.10
2023-12-14T20:37:40.853Z,90.10
2023-12-14T20:40:49.091Z,90.10
2023-12-14T20:43:56.647Z,90.30
2023-12-14T20:47:02.124Z,90.10
2023-12-14T20:50:11.203Z,90.10
2023-12-14T20:53:16.755Z,90.10
2023-12-14T20:56:27.271Z,90.10
2023-12-14T20:59:32.736Z,90.10
2023-12-14T21:02:41.485Z,90.10
2023-12-14T21:05:49.493Z,90.10
2023-12-14T21:08:56.999Z,90.10
2023-12-14T21:12:05.083Z,90.10
2023-12-14T21:15:12.768Z,90.10
2023-12-14T21:18:18.482Z,90.10
2023-12-14T21:21:26.145Z,90.10
2023-12-14T21:24:31.606Z,90.10
2023-12-14T21:27:48.168Z,90.10
2023-12-14T21:30:51.558Z,90.10
2023-12-14T21:33:59.102Z,90.10
2023-12-14T21:37:04.799Z,90.10
2023-12-14T21:40:14.902Z,90.10
2023-12-14T21:43:23.377Z,90.10
2023-12-14T21:46:30.898Z,90.10
2023-12-14T21:49:36.445Z,90.10
2023-12-14T21:52:44.031Z,90.10
2023-12-14T21:55:50.531Z,90.10
2023-12-14T21:59:00.759Z,90.10
2023-12-14T22:02:06.401Z,90.30
2023-12-14T22:05:14.252Z,90.20
2023-12-14T22:08:19.826Z,90.20
2023-12-14T22:11:27.651Z,90.20
2023-12-14T22:14:35.923Z,90.50
2023-12-14T22:17:43.925Z,90.20
2023-12-14T22:20:49.746Z,90.20
2023-12-14T22:23:57.383Z,90.20
2023-12-14T22:27:03.372Z,90.20
2023-12-14T22:30:14.478Z,90.30
2023-12-14T22:33:20.744Z,90.20
2023-12-14T22:36:28.334Z,90.20
2023-12-14T22:39:33.777Z,90.20
2023-12-14T22:42:41.424Z,90.20
2023-12-14T22:45:49.628Z,90.20
2023-12-14T22:48:57.136Z,90.20
2023-12-14T22:52:02.876Z,90.30
2023-12-14T22:55:13.181Z,90.30
2023-12-14T22:58:18.659Z,90.30
2023-12-14T23:01:37.419Z,90.30
2023-12-14T23:04:44.556Z,90.30
2023-12-14T23:07:52.199Z,90.30
2023-12-14T23:10:57.745Z,90.30
2023-12-14T23:14:05.325Z,90.30
2023-12-14T23:17:13.473Z,90.40
2023-12-14T23:20:21.218Z,90.30
2023-12-14T23:23:28.780Z,90.30
2023-12-14T23:26:34.351Z,90.30
2023-12-14T23:29:42.573Z,90.30
2023-12-14T23:32:50.716Z,90.20
2023-12-14T23:35:58.243Z,90.30
2023-12-14T23:39:04.103Z,90.30
2023-12-14T23:42:11.650Z,90.30
2023-12-14T23:45:17.312Z,90.40
2023-12-14T23:48:27.666Z,90.30
2023-12-14T23:51:33.228Z,90.40
2023-12-14T23:54:40.736Z,90.50
2023-12-14T23:57:47.454Z,90.60
